Time;durP1;ratioP1;P1;durP2;ratioP2;P2;SDS_P1;SDS_P2;PMS_P1;PMS_P2;Temp;Humidity;BMP_temperature;BMP_pressure;BME280_temperature;BME280_humidity;BME280_pressure;Samples;Min_cycle;Max_cycle;Signal;HPM_P1;HPM_P2
2021/03/29 00:01:30;;;;;;;;;;;;;;;13.05;46.64;102166.81;4927937;28;7188;-77
2021/03/29 00:03:56;;;;;;;;;;;;;;;13.01;46.93;102172.75;4929190;28;7179;-77
2021/03/29 00:06:40;;;;;;;;;;;;;;;12.97;46.99;102167.34;4922085;28;6798;-77
2021/03/29 00:09:06;;;;;;;;;;;;;;;12.90;47.36;102183.59;4909233;28;7041;-77
2021/03/29 00:11:32;;;;;;;;;;;;;;;12.88;47.06;102177.44;4927163;28;7669;-77
2021/03/29 00:13:57;;;;;;;;;;;;;;;12.84;46.90;102175.56;4913169;28;7694;-77
2021/03/29 00:16:23;;;;;;;;;;;;;;;12.79;47.51;102183.19;4926601;28;7264;-77
2021/03/29 00:18:49;;;;;;;;;;;;;;;12.75;47.55;102179.59;4925471;28;7583;-77
2021/03/29 00:21:14;;;;;;;;;;;;;;;12.71;47.01;102169.00;4911131;28;6833;-77
2021/03/29 00:23:40;;;;;;;;;;;;;;;12.68;46.94;102176.72;4926400;28;6823;-77
2021/03/29 00:26:06;;;;;;;;;;;;;;;12.64;47.24;102186.16;4914051;28;7101;-77
2021/03/29 00:28:31;;;;;;;;;;;;;;;12.60;47.67;102183.34;4911715;28;7467;-77
2021/03/29 00:30:57;;;;;;;;;;;;;;;12.55;47.73;102177.97;4915935;28;7352;-77
2021/03/29 00:33:23;;;;;;;;;;;;;;;12.53;47.71;102178.75;4918849;28;6904;-77
2021/03/29 00:35:49;;;;;;;;;;;;;;;12.48;47.80;102174.25;4911598;28;6777;-77
2021/03/29 00:38:15;;;;;;;;;;;;;;;12.37;48.48;102175.53;4917944;28;6792;-77
2021/03/29 00:40:49;;;;;;;;;;;;;;;12.38;47.95;102177.31;4916959;28;7512;-77
2021/03/29 00:43:17;;;;;;;;;;;;;;;12.36;47.92;102173.75;4937373;28;13220;-77
2021/03/29 00:45:44;;;;;;;;;;;;;;;12.34;47.99;102167.63;4908031;29;11206;-77
2021/03/29 00:48:10;;;;;;;;;;;;;;;12.30;47.87;102170.94;4905178;29;7112;-77
2021/03/29 00:50:42;;;;;;;;;;;;;;;12.27;47.92;102163.00;4906873;28;6792;-77
2021/03/29 00:53:07;;;;;;;;;;;;;;;12.23;48.16;102171.53;4937241;28;7110;-77
2021/03/29 00:55:33;;;;;;;;;;;;;;;12.19;48.70;102164.41;4906916;29;6878;-77
2021/03/29 00:57:58;;;;;;;;;;;;;;;12.15;48.15;102166.00;4923549;28;6787;-77
2021/03/29 01:00:30;;;;;;;;;;;;;;;12.12;48.27;102167.59;4930903;28;7383;-77
2021/03/29 01:02:55;;;;;;;;;;;;;;;12.08;48.67;102163.13;4919495;28;6828;-77
2021/03/29 01:05:21;;;;;;;;;;;;;;;12.04;48.48;102174.25;4929293;28;6796;-77
2021/03/29 01:07:48;;;;;;;;;;;;;;;12.02;48.33;102168.97;4915055;28;7045;-77
2021/03/29 01:10:14;;;;;;;;;;;;;;;12.00;48.91;102174.91;4913973;29;11579;-77
2021/03/29 01:12:42;;;;;;;;;;;;;;;11.94;48.72;102161.66;4930895;28;7625;-77
2021/03/29 01:15:09;;;;;;;;;;;;;;;11.91;48.75;102174.56;4911701;28;7273;-77
2021/03/29 01:17:35;;;;;;;;;;;;;;;11.86;48.82;102164.84;4912916;28;7204;-77
2021/03/29 01:20:00;;;;;;;;;;;;;;;11.84;48.74;102168.22;4912334;29;7198;-77
2021/03/29 01:22:48;;;;;;;;;;;;;;;11.81;49.18;102165.47;4931712;28;6936;-77
2021/03/29 01:25:35;;;;;;;;;;;;;;;11.77;49.38;102164.44;4927414;29;11120;-77
2021/03/29 01:28:03;;;;;;;;;;;;;;;11.73;48.72;102167.75;4927379;29;11168;-77
2021/03/29 01:30:30;;;;;;;;;;;;;;;11.71;49.37;102164.19;4894806;29;7411;-77
2021/03/29 01:32:56;;;;;;;;;;;;;;;11.68;49.17;102161.47;4905626;29;6804;-77
2021/03/29 01:35:46;;;;;;;;;;;;;;;11.64;49.31;102154.38;4921732;29;6851;-77
2021/03/29 01:38:12;;;;;;;;;;;;;;;11.59;49.18;102159.34;4926825;28;7384;-77
2021/03/29 01:40:39;;;;;;;;;;;;;;;11.56;49.33;102153.16;4923738;28;6796;-77
2021/03/29 01:43:06;;;;;;;;;;;;;;;11.54;49.34;102165.22;4911594;29;7151;-77
2021/03/29 01:45:32;;;;;;;;;;;;;;;11.49;49.07;102157.22;4921798;29;6808;-77
2021/03/29 01:47:57;;;;;;;;;;;;;;;11.45;49.33;102157.91;4895800;29;8160;-77
2021/03/29 01:50:25;;;;;;;;;;;;;;;11.42;49.63;102168.19;4911544;29;7171;-77
2021/03/29 01:52:51;;;;;;;;;;;;;;;11.39;49.63;102161.94;4890710;29;7768;-77
2021/03/29 01:55:16;;;;;;;;;;;;;;;11.37;49.67;102166.19;4919416;28;7227;-77
2021/03/29 01:57:42;;;;;;;;;;;;;;;11.33;49.86;102162.59;4921687;28;7538;-77
2021/03/29 02:00:15;;;;;;;;;;;;;;;11.30;49.82;102165.06;4897300;29;7746;-77
2021/03/29 02:02:42;;;;;;;;;;;;;;;11.26;49.71;102163.16;4931879;28;6824;-77
2021/03/29 02:05:11;;;;;;;;;;;;;;;11.22;50.17;102158.66;4913266;28;6788;-77
2021/03/29 02:07:37;;;;;;;;;;;;;;;11.19;50.03;102161.97;4929278;28;7083;-77
2021/03/29 02:10:10;;;;;;;;;;;;;;;11.15;50.55;102164.41;4914342;28;6807;-77
2021/03/29 02:12:37;;;;;;;;;;;;;;;11.12;49.93;102175.56;4918306;28;8495;-77
2021/03/29 02:15:04;;;;;;;;;;;;;;;11.09;50.12;102165.03;4931685;28;6808;-77
2021/03/29 02:17:29;;;;;;;;;;;;;;;11.07;49.90;102163.19;4945646;28;7250;-77
2021/03/29 02:19:55;;;;;;;;;;;;;;;11.03;50.30;102159.56;4945688;28;6784;-77
2021/03/29 02:22:20;;;;;;;;;;;;;;;11.00;49.91;102158.53;4917873;28;7136;-77
2021/03/29 02:24:46;;;;;;;;;;;;;;;10.96;50.58;102157.50;4917905;28;6808;-77
2021/03/29 02:27:11;;;;;;;;;;;;;;;10.93;50.25;102162.56;4929947;28;7393;-77
2021/03/29 02:29:37;;;;;;;;;;;;;;;10.89;50.39;102165.88;4913587;28;7228;-77
2021/03/29 02:32:03;;;;;;;;;;;;;;;10.87;50.64;102162.31;4917268;28;8876;-77
2021/03/29 02:34:29;;;;;;;;;;;;;;;10.83;50.80;102161.28;4914206;28;7100;-77
2021/03/29 02:36:54;;;;;;;;;;;;;;;10.80;50.52;102155.03;4911357;28;6968;-77
2021/03/29 02:39:20;;;;;;;;;;;;;;;10.77;50.29;102162.69;4912022;28;6788;-77
2021/03/29 02:41:46;;;;;;;;;;;;;;;10.74;50.35;102158.25;4926988;28;7243;-77
2021/03/29 02:44:12;;;;;;;;;;;;;;;10.70;50.46;102166.75;4927475;28;6832;-77
2021/03/29 02:46:37;;;;;;;;;;;;;;;10.68;50.63;102168.38;4911397;28;7356;-77
2021/03/29 02:49:03;;;;;;;;;;;;;;;10.63;50.91;102167.31;4929232;28;6816;-77
2021/03/29 02:51:30;;;;;;;;;;;;;;;10.60;50.90;102165.41;4914061;28;7244;-77
2021/03/29 02:53:57;;;;;;;;;;;;;;;10.58;50.95;102172.25;4931195;28;7119;-77
2021/03/29 02:56:25;;;;;;;;;;;;;;;10.56;51.22;102173.00;4916288;28;7295;-76
2021/03/29 02:58:59;;;;;;;;;;;;;;;10.52;51.13;102176.28;4945513;28;7401;-77
2021/03/29 03:01:27;;;;;;;;;;;;;;;10.48;51.13;102177.88;4928311;28;7223;-77
2021/03/29 03:03:53;;;;;;;;;;;;;;;10.45;51.12;102174.25;4928895;28;6820;-77
2021/03/29 03:06:27;;;;;;;;;;;;;;;10.41;51.32;102169.69;4913808;28;8189;-77
2021/03/29 03:08:53;;;;;;;;;;;;;;;10.36;51.28;102170.38;4911178;28;13878;-77
2021/03/29 03:11:19;;;;;;;;;;;;;;;10.34;51.54;102172.03;4911018;28;7231;-77
2021/03/29 03:13:44;;;;;;;;;;;;;;;10.34;51.47;102176.31;4945126;28;7730;-77
2021/03/29 03:16:10;;;;;;;;;;;;;;;10.28;51.70;102170.84;4934844;28;7002;-77
2021/03/29 03:18:37;;;;;;;;;;;;;;;10.25;51.33;102175.91;4927913;28;6915;-77
2021/03/29 03:21:03;;;;;;;;;;;;;;;10.23;51.88;102177.53;4916124;28;8521;-77
2021/03/29 03:23:28;;;;;;;;;;;;;;;10.18;51.90;102173.78;4930117;28;6856;-77
2021/03/29 03:25:54;;;;;;;;;;;;;;;10.16;51.55;102181.50;4944762;28;6951;-77
2021/03/29 03:28:21;;;;;;;;;;;;;;;10.14;51.90;102175.34;4916916;28;8529;-77
2021/03/29 03:30:52;;;;;;;;;;;;;;;10.10;51.79;102178.63;4936808;28;11219;-77
2021/03/29 03:33:19;;;;;;;;;;;;;;;10.06;52.03;102180.19;4943903;28;11265;-77
2021/03/29 03:35:45;;;;;;;;;;;;;;;10.02;52.15;102183.47;4918600;28;7294;-77
2021/03/29 03:38:15;;;;;;;;;;;;;;;10.00;51.65;102181.56;4911759;28;7397;-77
2021/03/29 03:40:44;;;;;;;;;;;;;;;9.97;51.82;102177.13;4928077;28;7210;-77
2021/03/29 03:43:11;;;;;;;;;;;;;;;9.94;52.18;102179.59;4915249;28;8535;-77
2021/03/29 03:45:44;;;;;;;;;;;;;;;9.92;51.65;102182.94;4928818;28;7227;-77
2021/03/29 03:48:11;;;;;;;;;;;;;;;9.88;51.71;102184.47;4911147;28;7846;-77
2021/03/29 03:50:36;;;;;;;;;;;;;;;9.85;52.17;102184.34;4912753;28;7087;-77
2021/03/29 03:53:02;;;;;;;;;;;;;;;9.83;51.78;102179.91;4911440;28;7187;-77
2021/03/29 03:55:27;;;;;;;;;;;;;;;9.79;51.79;102180.53;4929757;28;7987;-77
2021/03/29 03:57:53;;;;;;;;;;;;;;;9.78;52.05;102174.47;4914508;28;7354;-77
2021/03/29 04:00:19;;;;;;;;;;;;;;;9.74;52.48;102177.72;4911118;29;6868;-77
2021/03/29 04:02:45;;;;;;;;;;;;;;;9.71;52.48;102183.66;4912932;29;7259;-77
2021/03/29 04:05:12;;;;;;;;;;;;;;;9.67;52.52;102188.63;4911953;28;8754;-76
2021/03/29 04:07:38;;;;;;;;;;;;;;;9.65;52.65;102195.44;4942414;28;6816;-77
2021/03/29 04:10:22;;;;;;;;;;;;;;;9.62;52.69;102182.31;4944899;28;7191;-77
2021/03/29 04:12:53;;;;;;;;;;;;;;;9.60;52.88;102183.91;4893656;28;11184;-76
2021/03/29 04:15:18;;;;;;;;;;;;;;;9.57;52.42;102191.56;4944009;28;11287;-77
2021/03/29 04:17:44;;;;;;;;;;;;;;;9.56;52.55;102194.97;4926574;28;7435;-77
2021/03/29 04:20:10;;;;;;;;;;;;;;;9.52;52.37;102188.72;4927001;28;7367;-77
2021/03/29 04:22:36;;;;;;;;;;;;;;;9.43;52.92;102184.00;4944985;28;7339;-77
2021/03/29 04:25:04;;;;;;;;;;;;;;;9.43;52.95;102194.38;4944821;28;7035;-77
2021/03/29 04:27:29;;;;;;;;;;;;;;;9.42;52.91;102192.59;4925541;28;6816;-77
2021/03/29 04:29:55;;;;;;;;;;;;;;;9.39;52.89;102191.50;4942739;28;7305;-77
2021/03/29 04:32:20;;;;;;;;;;;;;;;9.36;52.80;102186.16;4942405;28;8706;-77
2021/03/29 04:34:46;;;;;;;;;;;;;;;9.35;52.73;102187.88;4929132;28;7045;-77
2021/03/29 04:37:11;;;;;;;;;;;;;;;9.35;53.15;102189.56;4940734;28;8444;-77
2021/03/29 04:39:37;;;;;;;;;;;;;;;9.30;52.71;102181.56;4929573;28;7187;-77
2021/03/29 04:42:03;;;;;;;;;;;;;;;9.28;53.15;102184.91;4927829;28;7212;-77
2021/03/29 04:44:28;;;;;;;;;;;;;;;9.25;53.25;102175.28;4943840;28;6856;-77
2021/03/29 04:46:54;;;;;;;;;;;;;;;9.22;53.25;102180.31;4937226;28;7447;-76
2021/03/29 04:49:19;;;;;;;;;;;;;;;9.19;53.00;102180.13;4950732;28;6791;-77
2021/03/29 04:51:45;;;;;;;;;;;;;;;9.16;53.02;102190.34;4943914;28;8498;-77
2021/03/29 04:54:10;;;;;;;;;;;;;;;9.15;53.33;102189.44;4939627;28;6815;-77
2021/03/29 04:56:36;;;;;;;;;;;;;;;9.12;53.20;102184.09;4910404;28;6824;-77
2021/03/29 04:59:01;;;;;;;;;;;;;;;9.10;53.20;102185.72;4944045;28;6796;-77
2021/03/29 05:01:27;;;;;;;;;;;;;;;9.08;53.50;102187.34;4945267;28;6852;-77
2021/03/29 05:03:52;;;;;;;;;;;;;;;9.05;53.50;102187.19;4941822;28;7766;-77
2021/03/29 05:06:18;;;;;;;;;;;;;;;9.03;53.40;102190.53;4944587;28;6868;-77
2021/03/29 05:08:43;;;;;;;;;;;;;;;9.00;53.59;102206.78;4931405;28;7258;-77
2021/03/29 05:11:10;;;;;;;;;;;;;;;8.99;53.37;102204.09;4927601;28;7242;-77
2021/03/29 05:13:36;;;;;;;;;;;;;;;8.96;53.51;102215.19;4911910;28;7010;-77
2021/03/29 05:16:02;;;;;;;;;;;;;;;8.94;53.41;102208.16;4944865;28;7048;-77
2021/03/29 05:18:27;;;;;;;;;;;;;;;8.94;53.51;102210.75;4944091;28;7600;-77
2021/03/29 05:20:54;;;;;;;;;;;;;;;8.93;53.53;102201.19;4910454;28;8526;-77
2021/03/29 05:23:20;;;;;;;;;;;;;;;8.92;53.16;102218.44;4943982;28;7298;-77
2021/03/29 05:25:46;;;;;;;;;;;;;;;8.90;53.13;102214.00;4940866;28;7052;-77
2021/03/29 05:28:11;;;;;;;;;;;;;;;8.88;53.15;102213.03;4926198;28;7206;-77
2021/03/29 05:30:37;;;;;;;;;;;;;;;8.90;53.64;102222.66;4941538;28;6904;-76
2021/03/29 05:33:03;;;;;;;;;;;;;;;8.90;52.92;102214.88;4943330;28;7508;-77
2021/03/29 05:35:28;;;;;;;;;;;;;;;8.90;53.38;102214.88;4918661;28;8747;-77
2021/03/29 05:37:54;;;;;;;;;;;;;;;8.91;53.16;102220.97;4929488;28;6812;-77
2021/03/29 05:40:20;;;;;;;;;;;;;;;8.89;53.36;102222.56;4920902;28;7702;-76
2021/03/29 05:42:45;;;;;;;;;;;;;;;8.88;53.27;102221.69;4927883;28;7204;-77
2021/03/29 05:45:11;;;;;;;;;;;;;;;8.91;53.37;102223.56;4919809;28;7233;-77
2021/03/29 05:47:37;;;;;;;;;;;;;;;8.92;53.36;102225.31;4919427;28;7056;-77
2021/03/29 05:50:05;;;;;;;;;;;;;;;8.93;53.28;102240.06;4929506;28;7336;-77
2021/03/29 05:52:30;;;;;;;;;;;;;;;8.93;53.45;102235.78;4932339;28;8723;-77
2021/03/29 05:54:56;;;;;;;;;;;;;;;8.93;53.45;102228.00;4934235;28;6859;-79
2021/03/29 05:57:23;;;;;;;;;;;;;;;8.92;52.93;102236.59;4919603;28;6873;-79
2021/03/29 05:59:49;;;;;;;;;;;;;;;8.94;53.11;102241.84;4919462;28;11407;-78
2021/03/29 06:02:31;;;;;;;;;;;;;;;8.95;52.72;102238.44;4917875;28;7394;-79
2021/03/29 06:04:57;;;;;;;;;;;;;;;8.96;53.10;102245.41;4935034;28;12303;-79
2021/03/29 06:07:24;;;;;;;;;;;;;;;8.99;53.05;102248.16;4912793;28;7347;-79
2021/03/29 06:09:50;;;;;;;;;;;;;;;9.00;52.97;102244.75;4932316;28;11032;-79
2021/03/29 06:12:17;;;;;;;;;;;;;;;9.03;52.74;102250.13;4949714;28;6988;-79
2021/03/29 06:14:44;;;;;;;;;;;;;;;9.02;52.90;102249.22;4947719;28;7287;-79
2021/03/29 06:17:11;;;;;;;;;;;;;;;9.08;52.77;102239.19;4944285;28;6852;-81
2021/03/29 06:20:11;;;;;;;;;;;;;;;9.18;52.11;102258.69;4934045;28;7342;-76
2021/03/29 06:22:37;;;;;;;;;;;;;;;9.19;52.24;102250.09;4938483;28;11044;-77
2021/03/29 06:25:04;;;;;;;;;;;;;;;9.26;52.37;102253.94;4929790;28;8697;-75
2021/03/29 06:27:31;;;;;;;;;;;;;;;9.26;52.29;102252.22;4944861;28;7050;-77
2021/03/29 06:30:18;;;;;;;;;;;;;;;9.31;51.83;102253.34;4946968;28;6816;-78
2021/03/29 06:32:53;;;;;;;;;;;;;;;9.35;52.11;102257.88;4944928;28;7284;-77
2021/03/29 06:35:20;;;;;;;;;;;;;;;9.40;51.86;102255.50;4929139;28;11742;-77
2021/03/29 06:37:45;;;;;;;;;;;;;;;9.42;51.88;102265.19;4929935;28;7885;-80
2021/03/29 06:40:12;;;;;;;;;;;;;;;9.47;51.93;102261.94;4925036;28;7004;-77
2021/03/29 06:42:38;;;;;;;;;;;;;;;9.46;51.82;102261.03;4904671;29;6797;-78
2021/03/29 06:45:14;;;;;;;;;;;;;;;9.50;51.89;102262.97;4942566;28;6878;-77
2021/03/29 06:47:39;;;;;;;;;;;;;;;9.55;51.49;102251.13;4915565;28;6812;-77
2021/03/29 06:50:06;;;;;;;;;;;;;;;9.58;51.44;102260.75;4914361;28;8030;-78
2021/03/29 06:52:33;;;;;;;;;;;;;;;9.61;51.64;102260.91;4908964;29;7634;-79
2021/03/29 06:55:24;;;;;;;;;;;;;;;9.64;51.23;102269.78;4923776;28;7869;-77
2021/03/29 06:58:06;;;;;;;;;;;;;;;9.67;51.24;102261.25;4907201;29;7168;-77
2021/03/29 07:00:33;;;;;;;;;;;;;;;9.70;51.45;102271.78;4907613;29;11197;-78
2021/03/29 07:03:00;;;;;;;;;;;;;;;9.74;51.09;102266.81;4925828;29;8662;-78
2021/03/29 07:05:26;;;;;;;;;;;;;;;9.75;51.19;102272.88;4909989;28;7297;-78
2021/03/29 07:07:52;;;;;;;;;;;;;;;9.80;51.08;102274.00;4938364;28;6809;-78
2021/03/29 07:10:18;;;;;;;;;;;;;;;9.83;50.99;102270.72;4935307;28;7087;-78
2021/03/29 07:12:43;;;;;;;;;;;;;;;9.87;51.01;102275.22;4932818;28;8277;-77
2021/03/29 07:15:10;;;;;;;;;;;;;;;9.88;51.13;102280.50;4900725;28;7124;-76
2021/03/29 07:17:39;;;;;;;;;;;;;;;9.95;51.10;102284.28;4928244;28;7730;-76
2021/03/29 07:20:10;;;;;;;;;;;;;;;9.98;50.55;102284.44;4928131;28;6812;-76
2021/03/29 07:22:36;;;;;;;;;;;;;;;10.01;50.77;102285.50;4924216;28;7551;-76
2021/03/29 07:25:21;;;;;;;;;;;;;;;10.05;50.42;102287.44;4932144;28;6825;-77
2021/03/29 07:27:51;;;;;;;;;;;;;;;10.09;50.51;102293.66;4916926;28;7527;-76
2021/03/29 07:30:17;;;;;;;;;;;;;;;10.14;50.58;102278.28;4918411;28;6828;-77
2021/03/29 07:32:52;;;;;;;;;;;;;;;10.18;50.25;102294.09;4925684;28;6942;-80
2021/03/29 07:35:18;;;;;;;;;;;;;;;10.21;50.00;102293.38;4924984;29;7184;-80
2021/03/29 07:37:53;;;;;;;;;;;;;;;10.25;50.39;102301.41;4916076;28;7462;-80
2021/03/29 07:40:18;;;;;;;;;;;;;;;10.32;50.35;102302.59;4927438;29;8074;-80
2021/03/29 07:42:51;;;;;;;;;;;;;;;10.35;49.96;102298.44;4924928;29;6912;-80
2021/03/29 07:45:25;;;;;;;;;;;;;;;10.43;49.75;102300.53;4924135;29;6838;-78
2021/03/29 07:47:52;;;;;;;;;;;;;;;10.44;50.84;102298.03;4907915;29;6975;-80
2021/03/29 07:50:38;;;;;;;;;;;;;;;10.56;50.51;102301.19;4936733;28;6939;-80
2021/03/29 07:53:04;;;;;;;;;;;;;;;10.68;50.52;102315.59;4921809;28;11243;-79
2021/03/29 07:55:36;;;;;;;;;;;;;;;10.77;50.44;102309.09;4939459;28;7265;-78
2021/03/29 07:58:32;;;;;;;;;;;;;;;10.94;49.69;102296.91;4939888;28;7548;-79
2021/03/29 08:01:02;;;;;;;;;;;;;;;11.10;49.49;102299.41;4915033;28;12755;-78
2021/03/29 08:03:27;;;;;;;;;;;;;;;11.17;49.10;102296.25;4918844;28;7265;-78
2021/03/29 08:05:53;;;;;;;;;;;;;;;11.22;49.13;102299.97;4945008;28;6864;-78
2021/03/29 08:08:27;;;;;;;;;;;;;;;11.27;48.79;102300.16;4918495;28;7130;-79
2021/03/29 08:10:59;;;;;;;;;;;;;;;11.30;48.74;102297.69;4928914;28;12865;-78
2021/03/29 08:13:54;;;;;;;;;;;;;;;11.26;49.59;102299.28;4899244;29;11072;-77
2021/03/29 08:16:23;;;;;;;;;;;;;;;11.26;49.01;102288.88;4897796;29;11218;-78
2021/03/29 08:19:12;;;;;;;;;;;;;;;11.36;49.38;102299.69;4923176;29;6808;-78
2021/03/29 08:21:44;;;;;;;;;;;;;;;11.56;49.56;102301.44;4907692;29;13751;-79
2021/03/29 08:24:36;;;;;;;;;;;;;;;11.72;49.00;102308.22;4912050;29;8170;-79
2021/03/29 08:27:25;;;;;;;;;;;;;;;11.80;48.99;102305.13;4925402;28;11097;-79
2021/03/29 08:29:53;;;;;;;;;;;;;;;11.98;48.71;102304.16;4926157;28;6879;-80
2021/03/29 08:32:31;;;;;;;;;;;;;;;12.04;48.48;102301.81;4923994;28;6856;-78
2021/03/29 08:35:18;;;;;;;;;;;;;;;12.17;47.96;102309.31;4933776;28;11154;-78
2021/03/29 08:37:54;;;;;;;;;;;;;;;12.25;48.34;102309.63;4920465;29;11294;-77
2021/03/29 08:40:33;;;;;;;;;;;;;;;12.35;48.35;102307.47;4915266;28;7247;-78
2021/03/29 08:43:06;;;;;;;;;;;;;;;12.44;47.86;102304.34;4947452;28;11206;-78
2021/03/29 08:45:31;;;;;;;;;;;;;;;12.48;47.77;102299.31;4902627;28;7326;-78
2021/03/29 08:47:58;;;;;;;;;;;;;;;12.51;47.74;102300.25;4922182;28;7105;-78
2021/03/29 08:50:24;;;;;;;;;;;;;;;12.59;47.62;102298.84;4919571;28;11376;-78
2021/03/29 08:52:50;;;;;;;;;;;;;;;12.63;48.95;102312.09;4945598;28;7249;-79
2021/03/29 08:55:20;;;;;;;;;;;;;;;12.70;48.00;102302.78;4941705;28;7898;-79
2021/03/29 08:57:46;;;;;;;;;;;;;;;12.85;47.83;102300.78;4909690;28;7296;-75
2021/03/29 09:00:15;;;;;;;;;;;;;;;13.01;47.97;102308.34;4931429;28;7246;-75
2021/03/29 09:02:40;;;;;;;;;;;;;;;13.25;50.56;102328.41;4943033;28;7231;-74
2021/03/29 09:05:07;;;;;;;;;;;;;;;13.41;50.77;102315.06;4942517;28;6780;-75
2021/03/29 09:07:43;;;;;;;;;;;;;;;13.50;51.48;102317.13;4926262;28;7334;-74
2021/03/29 09:10:25;;;;;;;;;;;;;;;13.55;51.63;102313.84;4916786;28;7019;-75
2021/03/29 09:13:00;;;;;;;;;;;;;;;13.61;50.65;102318.38;4929424;28;7199;-75
2021/03/29 09:15:28;;;;;;;;;;;;;;;13.65;50.09;102313.34;4942357;28;11369;-75
2021/03/29 09:18:02;;;;;;;;;;;;;;;13.73;50.99;102311.00;4927233;28;11048;-75
2021/03/29 09:20:42;;;;;;;;;;;;;;;13.86;50.49;102312.34;4935840;28;13051;-74
2021/03/29 09:23:08;;;;;;;;;;;;;;;13.96;49.90;102315.31;4920712;28;11027;-75
2021/03/29 09:25:37;;;;;;;;;;;;;;;14.05;49.28;102311.25;4903865;28;7259;-77
2021/03/29 09:28:18;;;;;;;;;;;;;;;14.13;49.80;102308.03;4916263;28;7360;-76
2021/03/29 09:30:46;;;;;;;;;;;;;;;14.23;49.17;102312.75;4940299;28;7065;-76
2021/03/29 09:33:12;;;;;;;;;;;;;;;14.31;48.68;102308.66;4922499;28;7091;-78
2021/03/29 09:35:38;;;;;;;;;;;;;;;14.42;48.86;102309.00;4911803;28;6819;-75
2021/03/29 09:38:03;;;;;;;;;;;;;;;14.54;48.21;102319.00;4919875;28;7107;-75
2021/03/29 09:40:34;;;;;;;;;;;;;;;14.64;48.17;102307.13;4906492;28;7334;-74
2021/03/29 09:42:59;;;;;;;;;;;;;;;14.75;47.83;102310.94;4931031;28;11241;-74
2021/03/29 09:45:26;;;;;;;;;;;;;;;14.85;47.63;102313.91;4935348;28;11168;-75
2021/03/29 09:48:05;;;;;;;;;;;;;;;14.98;46.87;102314.25;4900068;28;7432;-74
2021/03/29 09:50:35;;;;;;;;;;;;;;;15.06;46.81;102316.28;4902451;28;11241;-79
2021/03/29 09:53:12;;;;;;;;;;;;;;;15.19;46.53;102326.22;4906099;28;8858;-76
2021/03/29 09:55:41;;;;;;;;;;;;;;;15.29;46.54;102313.44;4902658;28;7347;-77
2021/03/29 09:58:20;;;;;;;;;;;;;;;15.43;46.25;102320.84;4918073;28;7119;-76
2021/03/29 10:00:45;;;;;;;;;;;;;;;15.57;45.62;102326.44;4921371;28;7094;-76
2021/03/29 10:03:15;;;;;;;;;;;;;;;15.67;45.03;102322.41;4936494;28;7208;-76
2021/03/29 10:05:40;;;;;;;;;;;;;;;15.79;45.05;102320.97;4912391;28;7828;-77
2021/03/29 10:08:08;;;;;;;;;;;;;;;15.93;44.61;102326.59;4929833;28;7316;-76
2021/03/29 10:10:34;;;;;;;;;;;;;;;16.04;44.76;102326.91;4919551;28;7379;-75
2021/03/29 10:13:13;;;;;;;;;;;;;;;16.19;44.22;102329.00;4928044;28;8541;-75
2021/03/29 10:15:40;;;;;;;;;;;;;;;16.31;43.64;102316.22;4874137;29;13292;-75
2021/03/29 10:18:12;;;;;;;;;;;;;;;16.44;43.19;102320.91;4914007;28;6833;-75
2021/03/29 10:20:43;;;;;;;;;;;;;;;16.56;42.91;102321.19;4920259;28;7107;-77
2021/03/29 10:23:22;;;;;;;;;;;;;;;16.70;42.96;102319.81;4894922;29;7326;-78
2021/03/29 10:26:20;;;;;;;;;;;;;;;16.82;42.17;102318.31;4944686;28;6970;-77
2021/03/29 10:28:56;;;;;;;;;;;;;;;16.98;42.01;102325.66;4930670;28;11240;-77
2021/03/29 10:31:22;;;;;;;;;;;;;;;17.14;41.70;102325.16;4898604;29;7448;-76
2021/03/29 10:33:47;;;;;;;;;;;;;;;17.27;41.57;102323.69;4915902;28;6960;-78
2021/03/29 10:36:17;;;;;;;;;;;;;;;17.39;40.96;102326.53;4911439;28;8483;-79
2021/03/29 10:38:42;;;;;;;;;;;;;;;17.51;40.59;102315.41;4940337;28;6819;-78
2021/03/29 10:41:08;;;;;;;;;;;;;;;17.68;40.25;102324.53;4920466;28;7210;-74
2021/03/29 10:43:34;;;;;;;;;;;;;;;17.80;39.94;102332.63;4940432;28;6798;-74
2021/03/29 10:45:59;;;;;;;;;;;;;;;17.97;39.54;102326.81;4917863;28;7230;-74
2021/03/29 10:48:25;;;;;;;;;;;;;;;18.10;39.28;102329.69;4945355;28;6787;-75
2021/03/29 10:50:50;;;;;;;;;;;;;;;18.26;39.13;102330.84;4932316;28;6816;-78
2021/03/29 10:53:16;;;;;;;;;;;;;;;18.41;38.73;102322.28;4944803;28;7357;-74
2021/03/29 10:55:41;;;;;;;;;;;;;;;18.56;37.70;102319.91;4947002;28;6806;-76
2021/03/29 10:58:07;;;;;;;;;;;;;;;18.74;37.78;102319.34;4943137;28;6888;-79
2021/03/29 11:00:32;;;;;;;;;;;;;;;18.92;37.02;102321.34;4935603;28;7167;-74
2021/03/29 11:02:58;;;;;;;;;;;;;;;19.11;36.92;102329.53;4934358;28;6948;-76
2021/03/29 11:05:24;;;;;;;;;;;;;;;19.30;36.50;102328.00;4934332;28;7380;-77
2021/03/29 11:07:49;;;;;;;;;;;;;;;19.51;36.06;102327.38;4927266;28;7006;-79
2021/03/29 11:10:15;;;;;;;;;;;;;;;19.69;36.01;102326.75;4923326;28;7519;-76
2021/03/29 11:12:40;;;;;;;;;;;;;;;20.00;36.58;102326.16;4943731;28;7314;-71
2021/03/29 11:15:06;;;;;;;;;;;;;;;20.62;38.81;102319.66;4929614;28;7678;-70
2021/03/29 11:17:34;;;;;;;;;;;;;;;20.85;39.27;102320.72;4945403;28;6980;-70
2021/03/29 11:19:59;;;;;;;;;;;;;;;21.03;40.28;102322.56;4944122;28;12201;-71
2021/03/29 11:22:25;;;;;;;;;;;;;;;21.23;37.36;102312.97;4941075;28;8225;-71
2021/03/29 11:24:50;;;;;;;;;;;;;;;21.40;39.22;102318.34;4941823;28;6784;-71
2021/03/29 11:27:16;;;;;;;;;;;;;;;21.51;38.97;102305.16;4943515;28;6839;-71
2021/03/29 11:29:41;;;;;;;;;;;;;;;21.62;38.87;102315.75;4943516;28;6791;-71
2021/03/29 11:32:07;;;;;;;;;;;;;;;21.71;38.77;102321.09;4925886;28;7068;-70
2021/03/29 11:34:32;;;;;;;;;;;;;;;21.80;38.19;102313.16;4912984;28;8993;-71
2021/03/29 11:36:58;;;;;;;;;;;;;;;21.88;37.80;102307.91;4929676;28;11047;-70
2021/03/29 11:39:24;;;;;;;;;;;;;;;21.95;38.21;102301.72;4912027;28;7096;-70
2021/03/29 11:41:49;;;;;;;;;;;;;;;22.07;37.85;102304.41;4939373;28;6939;-71
2021/03/29 11:44:15;;;;;;;;;;;;;;;22.14;36.98;102303.53;4942867;28;7742;-70
2021/03/29 11:46:40;;;;;;;;;;;;;;;22.22;36.63;102301.75;4942202;28;7291;-70
2021/03/29 11:49:06;;;;;;;;;;;;;;;;;;4943975;28;6780;-71
2021/03/29 11:51:31;;;;;;;;;;;;;;;22.71;35.50;102297.28;4929782;28;6788;-73
2021/03/29 11:53:57;;;;;;;;;;;;;;;23.13;34.13;102294.53;4921461;28;7540;-74
2021/03/29 11:56:22;;;;;;;;;;;;;;;23.56;33.32;102296.09;4942816;28;8089;-74
2021/03/29 11:58:50;;;;;;;;;;;;;;;23.77;32.75;102288.91;4925650;28;7614;-73
2021/03/29 12:01:32;;;;;;;;;;;;;;;23.97;33.04;102284.31;4940402;28;8468;-74
2021/03/29 12:04:03;;;;;;;;;;;;;;;24.34;31.96;102276.97;4928138;28;7488;-74
2021/03/29 12:06:32;;;;;;;;;;;;;;;24.51;31.96;102285.66;4926005;28;11151;-74
2021/03/29 12:09:08;;;;;;;;;;;;;;;24.75;31.54;102287.16;4913313;28;7120;-74
2021/03/29 12:14:33;;;;;;;;;;;;;;;25.63;28.60;102282.50;4907766;28;11109;-74
2021/03/29 12:16:59;;;;;;;;;;;;;;;25.71;29.50;102269.09;4912969;28;6864;-74
2021/03/29 12:19:24;;;;;;;;;;;;;;;25.82;29.31;102272.47;4907717;28;8542;-74
2021/03/29 12:21:53;;;;;;;;;;;;;;;26.07;28.87;102271.19;4941471;28;6939;-74
2021/03/29 12:24:23;;;;;;;;;;;;;;;26.46;28.31;102268.75;4912580;28;7092;-74
2021/03/29 12:26:49;;;;;;;;;;;;;;;26.61;28.10;102271.09;4924885;28;7202;-74
2021/03/29 12:29:20;;;;;;;;;;;;;;;26.82;27.56;102272.44;4927851;28;6796;-74
2021/03/29 12:31:46;;;;;;;;;;;;;;;27.11;26.95;102281.69;4915791;28;7134;-75
2021/03/29 12:34:12;;;;;;;;;;;;;;;27.33;26.63;102276.75;4915519;28;6856;-74
2021/03/29 12:36:43;;;;;;;;;;;;;;;27.53;26.80;102279.84;4913829;28;7505;-75
2021/03/29 12:41:41;;;;;;;;;;;;;;;28.02;25.96;102262.66;4924217;28;7415;-76
2021/03/29 12:44:12;;;;;;;;;;;;;;;28.29;25.53;102256.66;4941942;28;7362;-74
2021/03/29 12:46:39;;;;;;;;;;;;;;;28.60;25.04;102274.50;4925434;28;6840;-73
2021/03/29 12:49:09;;;;;;;;;;;;;;;28.85;25.02;102266.69;4915796;28;7229;-78
2021/03/29 12:51:35;;;;;;;;;;;;;;;29.11;24.29;102264.16;4931374;28;11242;-75
2021/03/29 12:54:15;;;;;;;;;;;;;;;27.32;28.12;102262.53;4929144;28;11212;-72
2021/03/29 12:56:43;;;;;;;;;;;;;;;26.67;29.29;102265.66;4905316;28;11271;-72
2021/03/29 12:59:09;;;;;;;;;;;;;;;26.29;27.31;102253.03;4912884;28;7031;-73
2021/03/29 13:01:38;;;;;;;;;;;;;;;26.22;29.30;102256.69;4925567;28;7337;-73